sensor_id;sensor_type;location;lat;lon;timestamp;P1;durP1;ratioP1;P2;durP2;ratioP2
11791;SDS011;5953;52.372;9.918;2023-03-20T00:00:49;17.80;;;13.47;;
11791;SDS011;5953;52.372;9.918;2023-03-20T00:03:24;18.73;;;13.87;;
11791;SDS011;5953;52.372;9.918;2023-03-20T00:05:52;17.60;;;14.33;;
11791;SDS011;5953;52.372;9.918;2023-03-20T00:08:21;17.67;;;13.47;;
11791;SDS011;5953;52.372;9.918;2023-03-20T00:10:55;17.20;;;14.40;;
11791;SDS011;5953;52.372;9.918;2023-03-20T00:13:23;19.13;;;14.47;;
11791;SDS011;5953;52.372;9.918;2023-03-20T00:15:54;19.07;;;14.43;;
11791;SDS011;5953;52.372;9.918;2023-03-20T00:18:23;20.10;;;15.77;;
11791;SDS011;5953;52.372;9.918;2023-03-20T00:20:58;22.40;;;16.50;;
11791;SDS011;5953;52.372;9.918;2023-03-20T00:23:27;18.87;;;15.87;;
11791;SDS011;5953;52.372;9.918;2023-03-20T00:25:58;19.07;;;15.53;;
11791;SDS011;5953;52.372;9.918;2023-03-20T00:28:28;19.90;;;15.30;;
11791;SDS011;5953;52.372;9.918;2023-03-20T00:31:02;19.37;;;15.20;;
11791;SDS011;5953;52.372;9.918;2023-03-20T00:33:35;19.93;;;15.87;;
11791;SDS011;5953;52.372;9.918;2023-03-20T00:36:03;22.00;;;17.23;;
11791;SDS011;5953;52.372;9.918;2023-03-20T00:38:32;25.13;;;18.33;;
11791;SDS011;5953;52.372;9.918;2023-03-20T00:41:10;25.27;;;18.43;;
11791;SDS011;5953;52.372;9.918;2023-03-20T00:43:51;25.77;;;18.10;;
11791;SDS011;5953;52.372;9.918;2023-03-20T00:46:26;32.57;;;22.53;;
11791;SDS011;5953;52.372;9.918;2023-03-20T00:49:02;38.30;;;24.10;;
11791;SDS011;5953;52.372;9.918;2023-03-20T00:51:29;40.50;;;25.77;;
11791;SDS011;5953;52.372;9.918;2023-03-20T00:53:57;41.47;;;26.50;;
11791;SDS011;5953;52.372;9.918;2023-03-20T00:56:32;44.67;;;27.57;;
11791;SDS011;5953;52.372;9.918;2023-03-20T00:59:02;41.17;;;26.03;;
11791;SDS011;5953;52.372;9.918;2023-03-20T01:01:31;42.27;;;26.93;;
11791;SDS011;5953;52.372;9.918;2023-03-20T01:04:00;39.57;;;24.53;;
11791;SDS011;5953;52.372;9.918;2023-03-20T01:06:35;42.10;;;25.57;;
11791;SDS011;5953;52.372;9.918;2023-03-20T01:09:03;35.80;;;24.03;;
11791;SDS011;5953;52.372;9.918;2023-03-20T01:11:36;40.90;;;25.17;;
11791;SDS011;5953;52.372;9.918;2023-03-20T01:14:05;42.23;;;26.77;;
11791;SDS011;5953;52.372;9.918;2023-03-20T01:16:41;37.47;;;23.23;;
11791;SDS011;5953;52.372;9.918;2023-03-20T01:19:13;36.77;;;24.43;;
11791;SDS011;5953;52.372;9.918;2023-03-20T01:21:42;42.57;;;25.57;;
11791;SDS011;5953;52.372;9.918;2023-03-20T01:24:10;41.13;;;26.00;;
11791;SDS011;5953;52.372;9.918;2023-03-20T01:26:38;37.47;;;23.63;;
11791;SDS011;5953;52.372;9.918;2023-03-20T01:29:12;32.70;;;22.13;;
11791;SDS011;5953;52.372;9.918;2023-03-20T01:31:45;34.93;;;22.97;;
11791;SDS011;5953;52.372;9.918;2023-03-20T01:34:15;32.93;;;21.77;;
11791;SDS011;5953;52.372;9.918;2023-03-20T01:36:43;35.27;;;23.37;;
11791;SDS011;5953;52.372;9.918;2023-03-20T01:39:15;34.77;;;23.50;;
11791;SDS011;5953;52.372;9.918;2023-03-20T01:41:44;35.33;;;21.97;;
11791;SDS011;5953;52.372;9.918;2023-03-20T01:44:17;32.83;;;20.83;;
11791;SDS011;5953;52.372;9.918;2023-03-20T01:46:47;32.63;;;21.37;;
11791;SDS011;5953;52.372;9.918;2023-03-20T01:52:21;31.27;;;21.10;;
11791;SDS011;5953;52.372;9.918;2023-03-20T01:54:50;36.40;;;23.00;;
11791;SDS011;5953;52.372;9.918;2023-03-20T01:57:19;35.97;;;23.10;;
11791;SDS011;5953;52.372;9.918;2023-03-20T01:59:50;37.30;;;22.07;;
11791;SDS011;5953;52.372;9.918;2023-03-20T02:02:20;40.90;;;24.33;;
11791;SDS011;5953;52.372;9.918;2023-03-20T02:04:51;41.50;;;22.93;;
11791;SDS011;5953;52.372;9.918;2023-03-20T02:07:23;43.47;;;24.60;;
11791;SDS011;5953;52.372;9.918;2023-03-20T02:09:51;45.63;;;25.03;;
11791;SDS011;5953;52.372;9.918;2023-03-20T02:12:19;45.27;;;24.43;;
11791;SDS011;5953;52.372;9.918;2023-03-20T02:14:48;43.47;;;24.97;;
11791;SDS011;5953;52.372;9.918;2023-03-20T02:17:18;47.67;;;26.67;;
11791;SDS011;5953;52.372;9.918;2023-03-20T02:19:50;41.53;;;25.53;;
11791;SDS011;5953;52.372;9.918;2023-03-20T02:25:29;31.83;;;19.80;;
11791;SDS011;5953;52.372;9.918;2023-03-20T02:28:19;34.37;;;20.20;;
11791;SDS011;5953;52.372;9.918;2023-03-20T02:31:25;35.90;;;19.70;;
11791;SDS011;5953;52.372;9.918;2023-03-20T02:37:37;32.57;;;17.87;;
11791;SDS011;5953;52.372;9.918;2023-03-20T02:40:14;34.43;;;17.07;;
11791;SDS011;5953;52.372;9.918;2023-03-20T02:42:49;25.17;;;14.77;;
11791;SDS011;5953;52.372;9.918;2023-03-20T02:45:25;24.67;;;14.57;;
11791;SDS011;5953;52.372;9.918;2023-03-20T02:47:58;25.30;;;13.50;;
11791;SDS011;5953;52.372;9.918;2023-03-20T02:50:39;26.87;;;15.37;;
11791;SDS011;5953;52.372;9.918;2023-03-20T02:53:18;25.67;;;14.30;;
11791;SDS011;5953;52.372;9.918;2023-03-20T02:55:59;28.13;;;14.70;;
11791;SDS011;5953;52.372;9.918;2023-03-20T02:58:37;25.60;;;14.93;;
11791;SDS011;5953;52.372;9.918;2023-03-20T03:01:12;26.10;;;14.33;;
11791;SDS011;5953;52.372;9.918;2023-03-20T03:03:44;24.53;;;13.97;;
11791;SDS011;5953;52.372;9.918;2023-03-20T03:06:16;24.77;;;13.90;;
11791;SDS011;5953;52.372;9.918;2023-03-20T03:08:50;23.00;;;13.57;;
11791;SDS011;5953;52.372;9.918;2023-03-20T03:11:22;28.20;;;13.70;;
11791;SDS011;5953;52.372;9.918;2023-03-20T03:13:51;26.60;;;13.67;;
11791;SDS011;5953;52.372;9.918;2023-03-20T03:16:23;24.03;;;13.93;;
11791;SDS011;5953;52.372;9.918;2023-03-20T03:18:57;24.03;;;13.53;;
11791;SDS011;5953;52.372;9.918;2023-03-20T03:21:30;25.13;;;13.47;;
11791;SDS011;5953;52.372;9.918;2023-03-20T03:24:01;23.13;;;12.77;;
11791;SDS011;5953;52.372;9.918;2023-03-20T03:26:31;23.10;;;14.33;;
11791;SDS011;5953;52.372;9.918;2023-03-20T03:29:02;24.20;;;13.33;;
11791;SDS011;5953;52.372;9.918;2023-03-20T03:31:34;22.67;;;13.43;;
11791;SDS011;5953;52.372;9.918;2023-03-20T03:34:04;24.17;;;13.80;;
11791;SDS011;5953;52.372;9.918;2023-03-20T03:36:35;22.33;;;12.90;;
11791;SDS011;5953;52.372;9.918;2023-03-20T03:39:13;18.53;;;11.97;;
11791;SDS011;5953;52.372;9.918;2023-03-20T03:41:48;23.00;;;13.63;;
11791;SDS011;5953;52.372;9.918;2023-03-20T03:44:21;20.07;;;12.47;;
11791;SDS011;5953;52.372;9.918;2023-03-20T03:46:53;25.03;;;13.80;;
11791;SDS011;5953;52.372;9.918;2023-03-20T03:49:25;22.60;;;13.13;;
11791;SDS011;5953;52.372;9.918;2023-03-20T03:51:57;25.00;;;14.83;;
11791;SDS011;5953;52.372;9.918;2023-03-20T03:54:30;20.80;;;13.17;;
11791;SDS011;5953;52.372;9.918;2023-03-20T03:57:03;22.50;;;13.17;;
11791;SDS011;5953;52.372;9.918;2023-03-20T03:59:34;21.30;;;12.83;;
11791;SDS011;5953;52.372;9.918;2023-03-20T04:02:06;21.87;;;12.77;;
11791;SDS011;5953;52.372;9.918;2023-03-20T04:04:36;23.07;;;13.37;;
11791;SDS011;5953;52.372;9.918;2023-03-20T04:07:09;23.77;;;13.70;;
11791;SDS011;5953;52.372;9.918;2023-03-20T04:09:38;25.33;;;14.73;;
11791;SDS011;5953;52.372;9.918;2023-03-20T04:12:08;23.10;;;13.93;;
11791;SDS011;5953;52.372;9.918;2023-03-20T04:14:55;24.47;;;14.03;;
11791;SDS011;5953;52.372;9.918;2023-03-20T04:17:23;21.63;;;13.70;;
11791;SDS011;5953;52.372;9.918;2023-03-20T04:19:51;24.60;;;15.40;;
11791;SDS011;5953;52.372;9.918;2023-03-20T04:22:19;29.17;;;16.83;;
11791;SDS011;5953;52.372;9.918;2023-03-20T04:24:49;28.83;;;16.87;;
11791;SDS011;5953;52.372;9.918;2023-03-20T04:27:18;29.23;;;16.70;;
11791;SDS011;5953;52.372;9.918;2023-03-20T04:29:46;27.67;;;16.80;;
11791;SDS011;5953;52.372;9.918;2023-03-20T04:32:14;31.33;;;17.67;;
11791;SDS011;5953;52.372;9.918;2023-03-20T04:34:41;30.53;;;17.50;;
11791;SDS011;5953;52.372;9.918;2023-03-20T04:37:09;26.77;;;16.50;;
11791;SDS011;5953;52.372;9.918;2023-03-20T04:39:37;29.10;;;16.00;;
11791;SDS011;5953;52.372;9.918;2023-03-20T04:42:09;33.40;;;17.27;;
11791;SDS011;5953;52.372;9.918;2023-03-20T04:44:37;31.13;;;18.23;;
11791;SDS011;5953;52.372;9.918;2023-03-20T04:47:04;33.83;;;17.40;;
11791;SDS011;5953;52.372;9.918;2023-03-20T04:49:33;33.27;;;17.30;;
11791;SDS011;5953;52.372;9.918;2023-03-20T04:52:01;31.10;;;17.03;;
11791;SDS011;5953;52.372;9.918;2023-03-20T04:54:28;33.77;;;18.17;;
11791;SDS011;5953;52.372;9.918;2023-03-20T04:56:56;33.17;;;18.17;;
11791;SDS011;5953;52.372;9.918;2023-03-20T04:59:31;33.13;;;17.63;;
11791;SDS011;5953;52.372;9.918;2023-03-20T05:01:59;31.80;;;17.87;;
11791;SDS011;5953;52.372;9.918;2023-03-20T05:04:27;29.87;;;17.90;;
11791;SDS011;5953;52.372;9.918;2023-03-20T05:06:56;29.40;;;17.57;;
11791;SDS011;5953;52.372;9.918;2023-03-20T05:09:24;35.73;;;18.23;;
11791;SDS011;5953;52.372;9.918;2023-03-20T05:11:54;31.23;;;18.33;;
11791;SDS011;5953;52.372;9.918;2023-03-20T05:14:23;34.47;;;18.47;;
11791;SDS011;5953;52.372;9.918;2023-03-20T05:16:52;32.53;;;18.03;;
11791;SDS011;5953;52.372;9.918;2023-03-20T05:19:20;34.77;;;18.90;;
11791;SDS011;5953;52.372;9.918;2023-03-20T05:21:48;39.00;;;20.00;;
11791;SDS011;5953;52.372;9.918;2023-03-20T05:24:16;32.13;;;17.80;;
11791;SDS011;5953;52.372;9.918;2023-03-20T05:26:45;30.87;;;17.73;;
11791;SDS011;5953;52.372;9.918;2023-03-20T05:29:13;34.83;;;19.83;;
11791;SDS011;5953;52.372;9.918;2023-03-20T05:31:41;33.73;;;18.23;;
11791;SDS011;5953;52.372;9.918;2023-03-20T05:34:11;30.03;;;16.43;;
11791;SDS011;5953;52.372;9.918;2023-03-20T05:36:39;30.07;;;17.47;;
11791;SDS011;5953;52.372;9.918;2023-03-20T05:39:09;30.27;;;16.93;;
11791;SDS011;5953;52.372;9.918;2023-03-20T05:41:37;30.03;;;17.07;;
11791;SDS011;5953;52.372;9.918;2023-03-20T05:44:05;27.70;;;17.23;;
11791;SDS011;5953;52.372;9.918;2023-03-20T05:46:33;29.50;;;17.23;;
11791;SDS011;5953;52.372;9.918;2023-03-20T05:49:02;31.53;;;16.40;;
11791;SDS011;5953;52.372;9.918;2023-03-20T05:51:31;33.23;;;17.33;;
11791;SDS011;5953;52.372;9.918;2023-03-20T05:53:59;26.77;;;17.03;;
11791;SDS011;5953;52.372;9.918;2023-03-20T05:56:27;32.47;;;17.17;;
11791;SDS011;5953;52.372;9.918;2023-03-20T05:58:55;31.43;;;17.10;;
11791;SDS011;5953;52.372;9.918;2023-03-20T06:01:23;29.63;;;17.40;;
11791;SDS011;5953;52.372;9.918;2023-03-20T06:03:51;36.47;;;18.27;;
11791;SDS011;5953;52.372;9.918;2023-03-20T06:06:19;29.90;;;17.53;;
11791;SDS011;5953;52.372;9.918;2023-03-20T06:08:48;28.67;;;17.13;;
11791;SDS011;5953;52.372;9.918;2023-03-20T06:11:16;30.10;;;17.50;;
11791;SDS011;5953;52.372;9.918;2023-03-20T06:13:46;28.60;;;16.57;;
11791;SDS011;5953;52.372;9.918;2023-03-20T06:16:16;31.83;;;17.67;;
11791;SDS011;5953;52.372;9.918;2023-03-20T06:18:45;29.23;;;17.60;;
11791;SDS011;5953;52.372;9.918;2023-03-20T06:21:14;34.90;;;18.13;;
11791;SDS011;5953;52.372;9.918;2023-03-20T06:23:42;32.00;;;16.67;;
11791;SDS011;5953;52.372;9.918;2023-03-20T06:26:12;31.53;;;17.80;;
11791;SDS011;5953;52.372;9.918;2023-03-20T06:28:40;30.90;;;17.03;;
11791;SDS011;5953;52.372;9.918;2023-03-20T06:31:08;35.83;;;19.13;;
11791;SDS011;5953;52.372;9.918;2023-03-20T06:33:36;32.07;;;17.73;;
11791;SDS011;5953;52.372;9.918;2023-03-20T06:36:05;31.27;;;17.23;;
11791;SDS011;5953;52.372;9.918;2023-03-20T06:38:33;33.13;;;18.60;;
11791;SDS011;5953;52.372;9.918;2023-03-20T06:41:01;34.57;;;17.83;;
11791;SDS011;5953;52.372;9.918;2023-03-20T06:43:30;32.20;;;18.90;;
11791;SDS011;5953;52.372;9.918;2023-03-20T06:45:58;35.03;;;18.17;;
11791;SDS011;5953;52.372;9.918;2023-03-20T06:48:26;31.13;;;18.13;;
11791;SDS011;5953;52.372;9.918;2023-03-20T06:50:55;32.53;;;18.50;;
11791;SDS011;5953;52.372;9.918;2023-03-20T06:53:23;28.80;;;18.53;;
11791;SDS011;5953;52.372;9.918;2023-03-20T06:55:52;32.97;;;18.50;;
11791;SDS011;5953;52.372;9.918;2023-03-20T06:58:20;33.40;;;19.00;;
11791;SDS011;5953;52.372;9.918;2023-03-20T07:00:50;34.97;;;19.97;;
11791;SDS011;5953;52.372;9.918;2023-03-20T07:03:19;36.80;;;20.57;;
11791;SDS011;5953;52.372;9.918;2023-03-20T07:05:47;37.67;;;20.87;;
11791;SDS011;5953;52.372;9.918;2023-03-20T07:08:25;34.03;;;19.13;;
11791;SDS011;5953;52.372;9.918;2023-03-20T07:14:48;34.50;;;20.67;;
11791;SDS011;5953;52.372;9.918;2023-03-20T07:17:18;34.57;;;18.77;;
11791;SDS011;5953;52.372;9.918;2023-03-20T07:19:59;30.93;;;18.70;;
11791;SDS011;5953;52.372;9.918;2023-03-20T07:22:28;33.40;;;19.00;;
11791;SDS011;5953;52.372;9.918;2023-03-20T07:24:56;30.03;;;18.53;;
11791;SDS011;5953;52.372;9.918;2023-03-20T07:27:25;30.80;;;18.60;;
11791;SDS011;5953;52.372;9.918;2023-03-20T07:29:53;27.43;;;17.17;;
11791;SDS011;5953;52.372;9.918;2023-03-20T07:32:22;26.13;;;16.03;;
11791;SDS011;5953;52.372;9.918;2023-03-20T07:34:50;24.50;;;15.40;;
11791;SDS011;5953;52.372;9.918;2023-03-20T07:37:19;26.23;;;16.23;;
11791;SDS011;5953;52.372;9.918;2023-03-20T07:39:51;29.40;;;16.40;;
11791;SDS011;5953;52.372;9.918;2023-03-20T07:42:50;24.20;;;15.30;;
11791;SDS011;5953;52.372;9.918;2023-03-20T07:45:19;28.57;;;16.63;;
11791;SDS011;5953;52.372;9.918;2023-03-20T07:47:49;25.37;;;15.53;;
11791;SDS011;5953;52.372;9.918;2023-03-20T07:50:18;23.57;;;15.43;;
11791;SDS011;5953;52.372;9.918;2023-03-20T07:53:05;24.03;;;13.67;;
11791;SDS011;5953;52.372;9.918;2023-03-20T07:55:49;22.60;;;15.37;;
11791;SDS011;5953;52.372;9.918;2023-03-20T07:58:17;21.40;;;13.77;;
11791;SDS011;5953;52.372;9.918;2023-03-20T08:00:45;20.97;;;13.30;;
11791;SDS011;5953;52.372;9.918;2023-03-20T08:03:17;20.77;;;14.10;;
11791;SDS011;5953;52.372;9.918;2023-03-20T08:05:46;20.63;;;14.10;;
11791;SDS011;5953;52.372;9.918;2023-03-20T08:08:35;23.57;;;15.40;;
11791;SDS011;5953;52.372;9.918;2023-03-20T08:11:35;24.97;;;15.40;;
11791;SDS011;5953;52.372;9.918;2023-03-20T08:14:05;20.70;;;14.00;;
11791;SDS011;5953;52.372;9.918;2023-03-20T08:16:34;21.87;;;13.63;;
11791;SDS011;5953;52.372;9.918;2023-03-20T08:19:04;21.93;;;13.43;;
11791;SDS011;5953;52.372;9.918;2023-03-20T08:24:00;20.80;;;14.23;;
11791;SDS011;5953;52.372;9.918;2023-03-20T08:26:27;19.90;;;13.00;;
11791;SDS011;5953;52.372;9.918;2023-03-20T08:28:55;17.77;;;12.07;;
11791;SDS011;5953;52.372;9.918;2023-03-20T08:31:24;18.47;;;13.30;;
11791;SDS011;5953;52.372;9.918;2023-03-20T08:36:30;19.73;;;11.80;;
11791;SDS011;5953;52.372;9.918;2023-03-20T08:38:58;18.03;;;13.17;;
11791;SDS011;5953;52.372;9.918;2023-03-20T08:41:26;16.07;;;11.43;;
11791;SDS011;5953;52.372;9.918;2023-03-20T08:43:53;17.70;;;11.77;;
11791;SDS011;5953;52.372;9.918;2023-03-20T08:46:21;15.77;;;11.67;;
11791;SDS011;5953;52.372;9.918;2023-03-20T08:48:49;15.53;;;11.10;;
11791;SDS011;5953;52.372;9.918;2023-03-20T08:51:16;15.17;;;10.60;;
11791;SDS011;5953;52.372;9.918;2023-03-20T08:53:46;17.60;;;11.53;;
11791;SDS011;5953;52.372;9.918;2023-03-20T08:56:13;18.63;;;12.30;;
11791;SDS011;5953;52.372;9.918;2023-03-20T08:58:41;15.60;;;11.70;;
11791;SDS011;5953;52.372;9.918;2023-03-20T09:01:09;16.33;;;12.10;;
11791;SDS011;5953;52.372;9.918;2023-03-20T09:03:38;18.40;;;11.57;;
11791;SDS011;5953;52.372;9.918;2023-03-20T09:06:06;16.97;;;12.17;;
11791;SDS011;5953;52.372;9.918;2023-03-20T09:08:35;18.10;;;11.47;;
11791;SDS011;5953;52.372;9.918;2023-03-20T09:11:05;17.93;;;12.43;;
11791;SDS011;5953;52.372;9.918;2023-03-20T09:13:33;16.07;;;11.53;;
11791;SDS011;5953;52.372;9.918;2023-03-20T09:16:01;16.83;;;12.23;;
11791;SDS011;5953;52.372;9.918;2023-03-20T09:18:29;16.77;;;11.47;;
11791;SDS011;5953;52.372;9.918;2023-03-20T09:20:57;16.33;;;12.13;;
11791;SDS011;5953;52.372;9.918;2023-03-20T09:23:25;22.13;;;12.90;;
11791;SDS011;5953;52.372;9.918;2023-03-20T09:25:53;26.23;;;12.70;;
11791;SDS011;5953;52.372;9.918;2023-03-20T09:28:22;20.70;;;12.33;;
11791;SDS011;5953;52.372;9.918;2023-03-20T09:30:53;15.80;;;11.07;;
11791;SDS011;5953;52.372;9.918;2023-03-20T09:33:21;16.50;;;11.20;;
11791;SDS011;5953;52.372;9.918;2023-03-20T09:35:50;20.43;;;12.23;;
11791;SDS011;5953;52.372;9.918;2023-03-20T09:38:17;18.03;;;11.70;;
11791;SDS011;5953;52.372;9.918;2023-03-20T09:40:50;17.97;;;11.27;;
11791;SDS011;5953;52.372;9.918;2023-03-20T09:43:34;16.60;;;11.50;;
11791;SDS011;5953;52.372;9.918;2023-03-20T09:46:15;16.60;;;11.13;;
11791;SDS011;5953;52.372;9.918;2023-03-20T09:48:57;16.37;;;11.60;;
11791;SDS011;5953;52.372;9.918;2023-03-20T09:51:35;14.53;;;10.53;;
11791;SDS011;5953;52.372;9.918;2023-03-20T09:54:09;13.70;;;10.70;;
11791;SDS011;5953;52.372;9.918;2023-03-20T09:56:44;16.87;;;12.67;;
11791;SDS011;5953;52.372;9.918;2023-03-20T09:59:13;17.10;;;11.60;;
11791;SDS011;5953;52.372;9.918;2023-03-20T10:01:44;16.97;;;12.20;;
11791;SDS011;5953;52.372;9.918;2023-03-20T10:04:16;17.77;;;13.37;;
11791;SDS011;5953;52.372;9.918;2023-03-20T10:06:45;16.87;;;13.00;;
11791;SDS011;5953;52.372;9.918;2023-03-20T10:09:14;15.43;;;11.50;;
11791;SDS011;5953;52.372;9.918;2023-03-20T10:11:49;17.80;;;12.20;;
11791;SDS011;5953;52.372;9.918;2023-03-20T10:14:28;15.57;;;11.60;;
11791;SDS011;5953;52.372;9.918;2023-03-20T10:17:07;15.60;;;12.23;;
11791;SDS011;5953;52.372;9.918;2023-03-20T10:19:50;16.57;;;11.53;;
11791;SDS011;5953;52.372;9.918;2023-03-20T10:22:20;15.60;;;10.73;;
11791;SDS011;5953;52.372;9.918;2023-03-20T10:24:53;12.07;;;9.50;;
11791;SDS011;5953;52.372;9.918;2023-03-20T10:27:24;14.57;;;10.70;;
11791;SDS011;5953;52.372;9.918;2023-03-20T10:30:01;14.97;;;11.30;;
11791;SDS011;5953;52.372;9.918;2023-03-20T10:32:40;14.53;;;10.27;;
11791;SDS011;5953;52.372;9.918;2023-03-20T10:35:18;14.43;;;11.13;;
11791;SDS011;5953;52.372;9.918;2023-03-20T10:38:01;16.33;;;11.10;;
11791;SDS011;5953;52.372;9.918;2023-03-20T10:40:36;16.10;;;11.10;;
11791;SDS011;5953;52.372;9.918;2023-03-20T10:43:09;15.03;;;11.30;;
11791;SDS011;5953;52.372;9.918;2023-03-20T10:45:44;14.00;;;10.30;;
11791;SDS011;5953;52.372;9.918;2023-03-20T10:48:19;13.77;;;9.77;;
11791;SDS011;5953;52.372;9.918;2023-03-20T10:50:52;10.33;;;8.10;;
11791;SDS011;5953;52.372;9.918;2023-03-20T10:53:24;11.80;;;7.83;;
11791;SDS011;5953;52.372;9.918;2023-03-20T10:56:04;10.07;;;6.50;;
11791;SDS011;5953;52.372;9.918;2023-03-20T10:58:34;9.10;;;6.83;;
11791;SDS011;5953;52.372;9.918;2023-03-20T11:01:07;9.27;;;6.63;;
11791;SDS011;5953;52.372;9.918;2023-03-20T11:03:34;8.57;;;6.10;;
11791;SDS011;5953;52.372;9.918;2023-03-20T11:06:06;12.17;;;6.13;;
11791;SDS011;5953;52.372;9.918;2023-03-20T11:08:40;9.40;;;6.57;;
11791;SDS011;5953;52.372;9.918;2023-03-20T11:11:09;10.57;;;7.00;;
11791;SDS011;5953;52.372;9.918;2023-03-20T11:13:37;9.77;;;6.30;;
11791;SDS011;5953;52.372;9.918;2023-03-20T11:16:15;10.27;;;6.40;;
11791;SDS011;5953;52.372;9.918;2023-03-20T11:18:46;8.00;;;5.27;;
11791;SDS011;5953;52.372;9.918;2023-03-20T11:21:19;7.33;;;6.03;;
11791;SDS011;5953;52.372;9.918;2023-03-20T11:23:48;8.13;;;5.83;;
11791;SDS011;5953;52.372;9.918;2023-03-20T11:26:18;6.77;;;5.37;;
11791;SDS011;5953;52.372;9.918;2023-03-20T11:28:54;6.97;;;4.97;;
11791;SDS011;5953;52.372;9.918;2023-03-20T11:31:29;9.73;;;5.70;;
11791;SDS011;5953;52.372;9.918;2023-03-20T11:34:08;8.17;;;5.63;;
11791;SDS011;5953;52.372;9.918;2023-03-20T11:36:38;6.60;;;4.90;;
11791;SDS011;5953;52.372;9.918;2023-03-20T11:39:09;8.87;;;4.97;;
11791;SDS011;5953;52.372;9.918;2023-03-20T11:41:45;6.60;;;5.00;;
11791;SDS011;5953;52.372;9.918;2023-03-20T11:44:21;5.83;;;4.73;;
11791;SDS011;5953;52.372;9.918;2023-03-20T11:46:56;7.10;;;4.97;;
11791;SDS011;5953;52.372;9.918;2023-03-20T11:49:26;8.43;;;5.30;;
11791;SDS011;5953;52.372;9.918;2023-03-20T11:51:55;8.73;;;4.87;;
11791;SDS011;5953;52.372;9.918;2023-03-20T11:54:26;8.87;;;5.30;;
11791;SDS011;5953;52.372;9.918;2023-03-20T11:56:55;9.63;;;5.53;;
11791;SDS011;5953;52.372;9.918;2023-03-20T11:59:25;8.67;;;5.13;;
11791;SDS011;5953;52.372;9.918;2023-03-20T12:02:00;6.93;;;5.10;;
11791;SDS011;5953;52.372;9.918;2023-03-20T12:04:31;9.47;;;5.23;;
11791;SDS011;5953;52.372;9.918;2023-03-20T12:07:03;7.13;;;5.03;;
11791;SDS011;5953;52.372;9.918;2023-03-20T12:09:39;6.17;;;5.20;;
11791;SDS011;5953;52.372;9.918;2023-03-20T12:12:11;10.93;;;5.57;;
11791;SDS011;5953;52.372;9.918;2023-03-20T12:14:46;9.67;;;4.40;;
11791;SDS011;5953;52.372;9.918;2023-03-20T12:20:12;10.40;;;5.23;;
11791;SDS011;5953;52.372;9.918;2023-03-20T12:22:48;6.17;;;4.63;;
11791;SDS011;5953;52.372;9.918;2023-03-20T12:25:20;5.90;;;4.43;;
11791;SDS011;5953;52.372;9.918;2023-03-20T12:27:52;7.90;;;5.37;;
11791;SDS011;5953;52.372;9.918;2023-03-20T12:30:27;9.50;;;5.03;;
11791;SDS011;5953;52.372;9.918;2023-03-20T12:33:09;7.60;;;5.57;;
11791;SDS011;5953;52.372;9.918;2023-03-20T12:35:42;15.90;;;5.10;;
11791;SDS011;5953;52.372;9.918;2023-03-20T12:38:16;10.07;;;4.80;;
11791;SDS011;5953;52.372;9.918;2023-03-20T12:40:52;6.80;;;4.90;;
11791;SDS011;5953;52.372;9.918;2023-03-20T12:43:24;11.90;;;5.27;;
11791;SDS011;5953;52.372;9.918;2023-03-20T12:45:55;12.17;;;5.17;;
11791;SDS011;5953;52.372;9.918;2023-03-20T12:48:41;8.83;;;5.40;;
11791;SDS011;5953;52.372;9.918;2023-03-20T12:51:17;8.03;;;5.23;;
11791;SDS011;5953;52.372;9.918;2023-03-20T12:53:57;7.80;;;5.50;;
11791;SDS011;5953;52.372;9.918;2023-03-20T12:56:43;7.63;;;5.23;;
11791;SDS011;5953;52.372;9.918;2023-03-20T12:59:21;11.10;;;6.27;;
11791;SDS011;5953;52.372;9.918;2023-03-20T13:01:56;6.97;;;5.23;;
11791;SDS011;5953;52.372;9.918;2023-03-20T13:04:39;10.17;;;6.40;;
11791;SDS011;5953;52.372;9.918;2023-03-20T13:07:15;9.53;;;6.40;;
11791;SDS011;5953;52.372;9.918;2023-03-20T13:09:48;7.07;;;6.37;;
11791;SDS011;5953;52.372;9.918;2023-03-20T13:12:26;8.87;;;7.10;;
11791;SDS011;5953;52.372;9.918;2023-03-20T13:15:04;9.90;;;7.27;;
11791;SDS011;5953;52.372;9.918;2023-03-20T13:17:43;9.63;;;7.37;;
11791;SDS011;5953;52.372;9.918;2023-03-20T13:20:19;8.53;;;7.63;;
11791;SDS011;5953;52.372;9.918;2023-03-20T13:22:53;8.73;;;7.83;;
11791;SDS011;5953;52.372;9.918;2023-03-20T13:25:35;9.03;;;7.60;;
11791;SDS011;5953;52.372;9.918;2023-03-20T13:28:14;8.50;;;7.57;;
11791;SDS011;5953;52.372;9.918;2023-03-20T13:30:48;9.10;;;7.30;;
11791;SDS011;5953;52.372;9.918;2023-03-20T13:33:24;9.03;;;7.53;;
11791;SDS011;5953;52.372;9.918;2023-03-20T13:36:03;8.70;;;7.80;;
11791;SDS011;5953;52.372;9.918;2023-03-20T13:38:40;15.43;;;6.60;;
11791;SDS011;5953;52.372;9.918;2023-03-20T13:41:12;7.27;;;5.87;;
11791;SDS011;5953;52.372;9.918;2023-03-20T13:43:42;7.97;;;6.57;;
11791;SDS011;5953;52.372;9.918;2023-03-20T13:46:15;8.10;;;6.57;;
11791;SDS011;5953;52.372;9.918;2023-03-20T13:48:45;8.77;;;7.10;;
11791;SDS011;5953;52.372;9.918;2023-03-20T13:51:18;12.07;;;6.63;;
11791;SDS011;5953;52.372;9.918;2023-03-20T13:54:05;7.63;;;6.93;;
11791;SDS011;5953;52.372;9.918;2023-03-20T13:56:41;8.03;;;7.23;;
11791;SDS011;5953;52.372;9.918;2023-03-20T14:02:32;10.17;;;7.70;;
11791;SDS011;5953;52.372;9.918;2023-03-20T14:05:09;10.93;;;8.33;;
11791;SDS011;5953;52.372;9.918;2023-03-20T14:07:43;9.00;;;7.63;;
11791;SDS011;5953;52.372;9.918;2023-03-20T14:13:09;12.03;;;8.67;;
11791;SDS011;5953;52.372;9.918;2023-03-20T14:15:44;9.67;;;7.60;;
11791;SDS011;5953;52.372;9.918;2023-03-20T14:18:16;10.63;;;8.60;;
11791;SDS011;5953;52.372;9.918;2023-03-20T14:20:49;25.83;;;9.57;;
11791;SDS011;5953;52.372;9.918;2023-03-20T14:23:27;9.80;;;8.23;;
11791;SDS011;5953;52.372;9.918;2023-03-20T14:26:04;8.43;;;7.67;;
11791;SDS011;5953;52.372;9.918;2023-03-20T14:28:51;6.90;;;6.30;;
11791;SDS011;5953;52.372;9.918;2023-03-20T14:31:22;7.97;;;6.47;;
11791;SDS011;5953;52.372;9.918;2023-03-20T14:36:43;8.40;;;6.57;;
11791;SDS011;5953;52.372;9.918;2023-03-20T14:39:23;9.30;;;7.10;;
11791;SDS011;5953;52.372;9.918;2023-03-20T14:42:04;7.73;;;6.93;;
11791;SDS011;5953;52.372;9.918;2023-03-20T14:44:49;7.90;;;7.13;;
11791;SDS011;5953;52.372;9.918;2023-03-20T14:47:29;7.73;;;6.93;;
11791;SDS011;5953;52.372;9.918;2023-03-20T14:50:08;8.13;;;5.50;;
11791;SDS011;5953;52.372;9.918;2023-03-20T14:52:52;8.17;;;6.00;;
11791;SDS011;5953;52.372;9.918;2023-03-20T14:55:29;6.33;;;5.70;;
11791;SDS011;5953;52.372;9.918;2023-03-20T14:58:03;6.87;;;6.17;;
11791;SDS011;5953;52.372;9.918;2023-03-20T15:00:33;7.80;;;7.00;;
11791;SDS011;5953;52.372;9.918;2023-03-20T15:03:13;10.43;;;6.57;;
11791;SDS011;5953;52.372;9.918;2023-03-20T15:05:42;6.93;;;6.30;;
11791;SDS011;5953;52.372;9.918;2023-03-20T15:08:13;7.70;;;6.73;;
11791;SDS011;5953;52.372;9.918;2023-03-20T15:10:49;8.40;;;6.47;;
11791;SDS011;5953;52.372;9.918;2023-03-20T15:13:19;6.57;;;5.97;;
11791;SDS011;5953;52.372;9.918;2023-03-20T15:15:51;8.37;;;6.20;;
11791;SDS011;5953;52.372;9.918;2023-03-20T15:18:21;7.13;;;5.87;;
11791;SDS011;5953;52.372;9.918;2023-03-20T15:20:50;8.13;;;5.67;;
11791;SDS011;5953;52.372;9.918;2023-03-20T15:23:18;6.43;;;5.83;;
11791;SDS011;5953;52.372;9.918;2023-03-20T15:25:48;6.97;;;6.20;;
11791;SDS011;5953;52.372;9.918;2023-03-20T15:28:17;6.40;;;5.80;;
11791;SDS011;5953;52.372;9.918;2023-03-20T15:30:47;8.23;;;5.50;;
11791;SDS011;5953;52.372;9.918;2023-03-20T15:33:16;7.47;;;5.30;;
11791;SDS011;5953;52.372;9.918;2023-03-20T15:35:49;6.40;;;4.33;;
11791;SDS011;5953;52.372;9.918;2023-03-20T15:38:17;6.53;;;4.70;;
11791;SDS011;5953;52.372;9.918;2023-03-20T15:40:47;7.50;;;5.13;;